Gooderham, Canada
Current Conditions -  °F | °C
As of 2:00 AM on Monday 22 Dec 2014 (Local Time) from CYQA Reporting Station
Overcast Overcast  
Wind Chill: -7°   Ceiling: 2700
Heat Index: -4°   Visibility: 9mi
Dew Point: -5°   Wind: 5mph
Humidity: 93%   Direction: 110°ESE
Pressure: 30.24"   Gusts: NA
Location:  44.9°N, 78.38°W
Report Text: CYQA 220700Z AUTO 11004KT 9SM OVC027 M04/M05 A3024 RMK SLP255
Loading
Personal Weather Stations






























Interactive Weather Map New forecast layout! Learn more

10-Day Weather Forecast

Advertisements
Track Severe Weather on mobile